createdAt,value
2018-10-09T00:04:09.110Z,4.83
2018-10-09T00:10:14.150Z,7.80
2018-10-09T00:16:18.800Z,9.90
2018-10-09T00:22:23.458Z,7.70
2018-10-09T00:28:28.793Z,4.90
2018-10-09T00:34:33.436Z,6.53
2018-10-09T00:40:38.431Z,8.10
2018-10-09T00:46:43.141Z,8.60
2018-10-09T00:52:49.082Z,7.77
2018-10-09T00:58:53.867Z,7.00
2018-10-09T01:04:58.596Z,11.37
2018-10-09T01:11:03.641Z,10.83
2018-10-09T01:17:08.452Z,7.30
2018-10-09T01:23:13.406Z,10.57
2018-10-09T01:29:18.115Z,7.60
2018-10-09T01:35:22.815Z,10.13
2018-10-09T01:41:27.478Z,7.13
2018-10-09T01:47:32.569Z,8.57
2018-10-09T01:53:37.256Z,8.33
2018-10-09T01:59:41.869Z,7.57
2018-10-09T02:05:47.368Z,8.40
2018-10-09T02:11:52.040Z,7.83
2018-10-09T02:17:56.709Z,7.60
2018-10-09T02:24:01.333Z,7.57
2018-10-09T02:30:08.795Z,10.23
2018-10-09T02:36:13.418Z,7.17
2018-10-09T02:42:18.014Z,6.00
2018-10-09T02:48:22.650Z,10.33
2018-10-09T02:54:27.725Z,6.77
2018-10-09T03:00:32.364Z,8.53
2018-10-09T03:06:37.057Z,8.53
2018-10-09T03:12:41.673Z,8.43
2018-10-09T03:18:46.304Z,8.33
2018-10-09T03:24:51.584Z,6.10
2018-10-09T03:30:56.254Z,8.10
2018-10-09T03:37:00.890Z,8.80
2018-10-09T03:43:05.528Z,8.03
2018-10-09T03:49:10.145Z,9.63
2018-10-09T03:55:15.085Z,8.90
2018-10-09T04:01:19.705Z,5.87
2018-10-09T04:07:24.429Z,7.50
2018-10-09T04:13:29.391Z,6.50
2018-10-09T04:19:34.136Z,5.37
2018-10-09T04:25:39.038Z,18.87
2018-10-09T04:31:43.723Z,6.63
2018-10-09T04:37:48.345Z,6.80
2018-10-09T04:43:52.951Z,9.83
2018-10-09T04:49:57.903Z,6.73
2018-10-09T04:56:02.559Z,7.53
2018-10-09T05:02:07.195Z,10.00
2018-10-09T05:08:11.773Z,35.13
2018-10-09T05:14:16.704Z,9.37
2018-10-09T05:20:21.337Z,3.90
2018-10-09T05:26:26.319Z,3.50
2018-10-09T05:32:31.176Z,4.17
2018-10-09T05:38:36.457Z,3.50
2018-10-09T05:44:41.097Z,4.37
2018-10-09T05:50:46.037Z,4.00
2018-10-09T05:56:50.665Z,5.10
2018-10-09T06:02:55.262Z,5.67
2018-10-09T06:09:00.273Z,4.33
2018-10-09T06:15:04.973Z,6.17
2018-10-09T06:21:09.670Z,6.40
2018-10-09T06:27:14.993Z,5.73
2018-10-09T06:33:19.644Z,4.93
2018-10-09T06:39:24.257Z,5.20
2018-10-09T06:45:29.251Z,5.90
2018-10-09T06:51:33.919Z,7.60
2018-10-09T06:57:38.494Z,8.80
2018-10-09T07:03:43.157Z,5.37
2018-10-09T07:09:47.786Z,8.90
2018-10-09T07:15:52.733Z,5.40
2018-10-09T07:21:57.633Z,33.87
2018-10-09T07:28:02.330Z,16.33
2018-10-09T07:34:07.447Z,15.13
2018-10-09T07:40:12.416Z,13.00
2018-10-09T07:46:17.703Z,7.33
2018-10-09T07:52:22.724Z,7.27
2018-10-09T07:58:27.488Z,9.03
2018-10-09T08:04:32.101Z,9.57
2018-10-09T08:10:36.861Z,9.67
2018-10-09T08:16:41.593Z,8.67
2018-10-09T08:22:46.254Z,15.83
2018-10-09T08:28:50.773Z,14.60
2018-10-09T08:34:55.349Z,14.77
2018-10-09T08:40:59.971Z,13.57
2018-10-09T08:47:04.743Z,15.60
2018-10-09T08:53:12.535Z,16.17
2018-10-09T08:59:17.196Z,16.60
2018-10-09T09:05:21.822Z,14.90
2018-10-09T09:11:26.482Z,24.57
2018-10-09T09:17:31.150Z,15.17
2018-10-09T09:23:36.398Z,21.33
2018-10-09T09:29:41.084Z,16.73
2018-10-09T09:35:45.705Z,14.27
2018-10-09T09:41:50.344Z,15.10
2018-10-09T09:47:54.991Z,17.93
2018-10-09T09:53:59.868Z,18.67
2018-10-09T10:00:04.512Z,18.30
2018-10-09T10:06:10.000Z,19.57
2018-10-09T10:12:14.617Z,16.80
2018-10-09T10:18:19.251Z,24.60
2018-10-09T10:24:24.220Z,22.90
2018-10-09T10:30:29.212Z,28.90
2018-10-09T10:36:33.878Z,22.03
2018-10-09T10:42:38.469Z,15.63
2018-10-09T10:48:57.189Z,18.50
2018-10-09T10:55:01.788Z,20.40
2018-10-09T11:01:06.382Z,21.10
2018-10-09T11:07:11.030Z,16.67
2018-10-09T11:13:15.680Z,18.73
2018-10-09T11:19:20.352Z,15.87
2018-10-09T11:25:24.974Z,15.70
2018-10-09T11:31:29.685Z,16.67
2018-10-09T11:37:34.341Z,14.80
2018-10-09T11:43:38.953Z,12.97
2018-10-09T11:49:43.590Z,13.33
2018-10-09T11:55:48.165Z,18.60
2018-10-09T12:01:52.801Z,14.63
2018-10-09T12:07:57.450Z,15.77
2018-10-09T12:14:02.086Z,14.10
2018-10-09T12:20:06.738Z,17.17
2018-10-09T12:26:11.397Z,12.90
2018-10-09T12:32:16.039Z,14.87
2018-10-09T12:38:20.801Z,10.77
2018-10-09T12:44:25.438Z,13.90
2018-10-09T12:50:30.026Z,15.90
2018-10-09T12:56:34.626Z,13.43
2018-10-09T13:02:39.227Z,14.63
2018-10-09T13:08:43.851Z,14.70
2018-10-09T13:14:48.487Z,18.50
2018-10-09T13:20:53.172Z,13.93
2018-10-09T13:26:57.804Z,14.07
2018-10-09T13:33:02.464Z,12.13
2018-10-09T13:39:08.564Z,15.37
2018-10-09T13:45:13.228Z,10.33
2018-10-09T13:51:18.166Z,8.60
2018-10-09T13:57:22.935Z,13.73
2018-10-09T14:03:27.471Z,7.90
2018-10-09T14:09:32.100Z,9.60
2018-10-09T14:15:37.099Z,7.47
2018-10-09T14:21:41.741Z,8.60
2018-10-09T14:27:46.414Z,10.43
2018-10-09T14:33:51.166Z,6.53
2018-10-09T14:39:55.893Z,6.27
2018-10-09T14:46:00.577Z,7.73
2018-10-09T14:52:05.644Z,5.60
2018-10-09T14:58:10.317Z,12.43
2018-10-09T15:04:15.076Z,7.07
2018-10-09T15:10:19.727Z,10.33
2018-10-09T15:16:24.519Z,5.93
2018-10-09T15:22:29.273Z,7.20
2018-10-09T15:28:33.941Z,8.53
2018-10-09T15:34:38.590Z,6.27
2018-10-09T15:40:43.668Z,6.97
2018-10-09T15:46:48.364Z,6.90
2018-10-09T15:52:53.123Z,7.57
2018-10-09T15:58:58.024Z,7.73
2018-10-09T16:05:02.671Z,7.57
2018-10-09T16:11:07.397Z,7.03
2018-10-09T16:17:12.109Z,8.60
2018-10-09T16:23:16.813Z,10.93
2018-10-09T16:29:21.460Z,8.50
2018-10-09T16:35:26.195Z,10.07
2018-10-09T16:41:30.911Z,13.00
2018-10-09T16:47:35.570Z,9.17
2018-10-09T16:53:40.298Z,13.00
2018-10-09T16:59:44.976Z,13.13
2018-10-09T17:05:49.665Z,14.30
2018-10-09T17:11:54.342Z,10.40
2018-10-09T17:17:59.046Z,12.47
2018-10-09T17:24:03.749Z,10.80
2018-10-09T17:30:09.532Z,12.23
2018-10-09T17:36:14.624Z,10.97
2018-10-09T17:42:19.414Z,10.77
2018-10-09T17:48:24.094Z,18.87
2018-10-09T17:54:28.734Z,15.73
2018-10-09T18:00:33.679Z,14.27
2018-10-09T18:06:38.367Z,14.97
2018-10-09T18:12:43.024Z,17.80
2018-10-09T18:18:47.785Z,13.90
2018-10-09T18:24:52.394Z,13.47
2018-10-09T18:30:57.368Z,12.93
2018-10-09T18:37:02.043Z,14.37
2018-10-09T18:43:07.095Z,19.60
2018-10-09T18:49:11.849Z,19.00
2018-10-09T18:55:17.707Z,17.20
2018-10-09T19:01:22.716Z,18.37
2018-10-09T19:07:27.415Z,16.33
2018-10-09T19:13:32.153Z,15.60
2018-10-09T19:19:36.828Z,16.33
2018-10-09T19:25:41.850Z,17.23
2018-10-09T19:31:46.499Z,19.77
2018-10-09T19:37:51.134Z,18.97
2018-10-09T19:43:55.855Z,20.00
2018-10-09T19:50:00.867Z,21.10
2018-10-09T19:56:05.662Z,19.70
2018-10-09T20:02:10.449Z,16.67
2018-10-09T20:08:15.214Z,24.33
2018-10-09T20:14:19.919Z,22.33
2018-10-09T20:20:24.652Z,16.93
2018-10-09T20:26:29.437Z,15.77
2018-10-09T20:32:34.308Z,16.73
2018-10-09T20:38:38.961Z,16.77
2018-10-09T20:44:43.633Z,16.33
2018-10-09T20:50:48.673Z,16.73
2018-10-09T20:56:53.292Z,19.67
2018-10-09T21:02:58.407Z,19.83
2018-10-09T21:09:03.475Z,16.87
2018-10-09T21:15:08.131Z,20.50
2018-10-09T21:21:12.845Z,18.30
2018-10-09T21:27:17.543Z,18.73
2018-10-09T21:33:22.286Z,18.63
2018-10-09T21:39:27.050Z,19.43
2018-10-09T21:45:31.723Z,27.40
2018-10-09T21:51:36.397Z,23.37
2018-10-09T21:57:41.105Z,17.67
2018-10-09T22:03:46.090Z,21.10
2018-10-09T22:09:50.804Z,18.07
2018-10-09T22:15:55.518Z,17.27
2018-10-09T22:22:00.234Z,18.23
2018-10-09T22:28:04.961Z,16.57
2018-10-09T22:34:09.582Z,15.73
2018-10-09T22:40:14.312Z,19.57
2018-10-09T22:46:19.133Z,21.30
2018-10-09T22:52:24.042Z,19.27
2018-10-09T22:58:28.765Z,17.20
2018-10-09T23:04:33.438Z,21.00
2018-10-09T23:10:38.269Z,21.40
2018-10-09T23:16:42.980Z,20.43
2018-10-09T23:22:47.723Z,20.87
2018-10-09T23:28:52.447Z,26.40
2018-10-09T23:34:57.108Z,22.47
2018-10-09T23:41:01.779Z,27.23
2018-10-09T23:47:06.747Z,25.23
2018-10-09T23:53:11.417Z,24.47
2018-10-09T23:59:16.043Z,24.33
